MAPA DE AEROPUERTO

INFORMACIÓN METAR y TAF

METAR FOR LEPA
ADDS - METARS form results

(1409 UTC 09 August 2020)
Data provider http://aviationweather.gov/metar/data/
 
METAR text: LEPA 091400Z 24012KT CAVOK 32/18 Q1015 NOSIG
Conditions at: LEPA (PALMA DE MALLORC, ES) observed 1400 UTC 09 August 2020
Temperature: 32.0°C (90°F)
Dewpoint: 18.0°C (64°F) [RH = 43%]
Pressure (altimeter): 29.97 inches Hg (1015.0 mb)
Winds: from the WSW (240 degrees) at 14 MPH (12 knots; 6.2 m/s)
Visibility: 6 or more miles (10+ km)
Ceiling: ceiling and visibility are OK
Clouds: unknown
Weather: no significant weather observed at this time

METAR text: LEPA 091330Z 23011KT CAVOK 32/19 Q1015 NOSIG
Conditions at: LEPA (PALMA DE MALLORC, ES) observed 1330 UTC 09 August 2020
Temperature: 32.0°C (90°F)
Dewpoint: 19.0°C (66°F) [RH = 46%]
Pressure (altimeter): 29.97 inches Hg (1015.0 mb)
Winds: from the SW (230 degrees) at 13 MPH (11 knots; 5.7 m/s)
Visibility: 6 or more miles (10+ km)
Ceiling: ceiling and visibility are OK
Clouds: unknown
Weather: no significant weather observed at this time

Forecast for: LEPA (PALMA DE MALLORC, ES)
Text: TAF LEPA 091100Z 0912/1012 22010KT CAVOK TX33/0913Z TN21/1005Z
Forecast period: 1200 to 1800 UTC 09 August 2020
Forecast type: FROM: standard forecast or significant change
Winds: from the SW (220 degrees) at 12 MPH (10 knots; 5.1 m/s)
Visibility: 6 or more miles (10+ km)
Ceiling: unknown
Clouds: missing
Weather: no significant weather forecast for this period
Text: TEMPO 0912/0917 FEW090TCU
Forecast period: 1200 to 1700 UTC 09 August 2020
Forecast type: TEMPORARY: The following changes expected for less than half the time period
Visibility: missing
Ceiling: at least 12,000 feet AGL
Clouds: few clouds at 9000 feet AGL
Weather: no significant weather forecast for this period
Text: BECMG 0918/0920 VRB04KT
Forecast period: 1800 UTC 09 August 2020 to 1000 UTC 10 August 2020
Forecast type: BECOMING: Conditions expected to become as follows by 2000 UTC 09 August 2020
Winds: variable direction winds at 5 MPH (4 knots; 2.1 m/s)
Visibility: 6 or more miles (10+ km)
Ceiling: unknown
Clouds: missing
Weather: no significant weather forecast for this period
Text: BECMG 1010/1012 22010KT
Forecast period: 1000 to 1200 UTC 10 August 2020
Forecast type: BECOMING: Conditions expected to become as follows by 1200 UTC 10 August 2020
Winds: from the SW (220 degrees) at 12 MPH (10 knots; 5.1 m/s)
Visibility: 6 or more miles (10+ km)
Ceiling: unknown
Clouds: missing
Weather: no significant weather forecast for this period